sensor_id;sensor_type;location;lat;lon;timestamp;pressure;altitude;pressure_sealevel;temperature;humidity
59791;BME280;47431;51.640;5.554;2023-11-19T00:02:07;101612.72;;;11.96;100.00
59791;BME280;47431;51.640;5.554;2023-11-19T00:04:36;101611.75;;;11.97;100.00
59791;BME280;47431;51.640;5.554;2023-11-19T00:07:01;101595.25;;;12.03;100.00
59791;BME280;47431;51.640;5.554;2023-11-19T00:09:29;101561.31;;;12.17;100.00
59791;BME280;47431;51.640;5.554;2023-11-19T00:11:55;101548.72;;;12.17;100.00
59791;BME280;47431;51.640;5.554;2023-11-19T00:14:20;101521.81;;;12.17;100.00
59791;BME280;47431;51.640;5.554;2023-11-19T00:16:46;101465.19;;;12.19;100.00
59791;BME280;47431;51.640;5.554;2023-11-19T00:19:11;101413.97;;;12.21;100.00
59791;BME280;47431;51.640;5.554;2023-11-19T00:21:37;101372.09;;;12.16;100.00
59791;BME280;47431;51.640;5.554;2023-11-19T00:24:02;101319.72;;;12.22;100.00
59791;BME280;47431;51.640;5.554;2023-11-19T00:26:28;101309.22;;;12.17;100.00
59791;BME280;47431;51.640;5.554;2023-11-19T00:28:54;101318.94;;;12.20;100.00
59791;BME280;47431;51.640;5.554;2023-11-19T00:31:21;101312.31;;;12.26;100.00
59791;BME280;47431;51.640;5.554;2023-11-19T00:33:46;101297.78;;;12.28;100.00
59791;BME280;47431;51.640;5.554;2023-11-19T00:36:12;101298.88;;;12.26;100.00
59791;BME280;47431;51.640;5.554;2023-11-19T00:38:38;101307.47;;;12.31;100.00
59791;BME280;47431;51.640;5.554;2023-11-19T00:41:04;101308.06;;;12.36;100.00
59791;BME280;47431;51.640;5.554;2023-11-19T00:43:29;101315.16;;;12.37;100.00
59791;BME280;47431;51.640;5.554;2023-11-19T00:45:54;101323.16;;;12.39;100.00
59791;BME280;47431;51.640;5.554;2023-11-19T00:48:20;101340.25;;;12.38;100.00
59791;BME280;47431;51.640;5.554;2023-11-19T00:50:45;101356.50;;;12.36;100.00
59791;BME280;47431;51.640;5.554;2023-11-19T00:53:11;101384.47;;;12.34;100.00
59791;BME280;47431;51.640;5.554;2023-11-19T00:55:37;101403.31;;;12.34;100.00
59791;BME280;47431;51.640;5.554;2023-11-19T00:58:02;101441.88;;;12.34;100.00
59791;BME280;47431;51.640;5.554;2023-11-19T01:00:28;101459.72;;;12.35;100.00
59791;BME280;47431;51.640;5.554;2023-11-19T01:02:53;101488.97;;;12.41;100.00
59791;BME280;47431;51.640;5.554;2023-11-19T01:05:20;101524.06;;;12.40;100.00
59791;BME280;47431;51.640;5.554;2023-11-19T01:07:48;101533.75;;;12.42;100.00
59791;BME280;47431;51.640;5.554;2023-11-19T01:10:14;101543.97;;;12.37;100.00
59791;BME280;47431;51.640;5.554;2023-11-19T01:12:41;101578.59;;;12.43;100.00
59791;BME280;47431;51.640;5.554;2023-11-19T01:15:07;101592.13;;;12.42;100.00
59791;BME280;47431;51.640;5.554;2023-11-19T01:17:33;101588.47;;;12.43;100.00
59791;BME280;47431;51.640;5.554;2023-11-19T01:19:58;101600.31;;;12.40;100.00
59791;BME280;47431;51.640;5.554;2023-11-19T01:22:24;101612.00;;;12.39;100.00
59791;BME280;47431;51.640;5.554;2023-11-19T01:24:49;101619.22;;;12.39;100.00
59791;BME280;47431;51.640;5.554;2023-11-19T01:27:15;101618.53;;;12.35;100.00
59791;BME280;47431;51.640;5.554;2023-11-19T01:29:40;101623.06;;;12.35;100.00
59791;BME280;47431;51.640;5.554;2023-11-19T01:32:06;101614.13;;;12.34;100.00
59791;BME280;47431;51.640;5.554;2023-11-19T01:34:31;101642.28;;;12.28;100.00
59791;BME280;47431;51.640;5.554;2023-11-19T01:36:57;101646.41;;;12.34;100.00
59791;BME280;47431;51.640;5.554;2023-11-19T01:39:22;101665.25;;;12.34;100.00
59791;BME280;47431;51.640;5.554;2023-11-19T01:41:48;101719.69;;;12.39;100.00
59791;BME280;47431;51.640;5.554;2023-11-19T01:44:13;101725.94;;;12.40;100.00
59791;BME280;47431;51.640;5.554;2023-11-19T01:46:40;101725.94;;;12.40;100.00
59791;BME280;47431;51.640;5.554;2023-11-19T01:49:07;101734.09;;;12.38;100.00
59791;BME280;47431;51.640;5.554;2023-11-19T01:51:33;101746.97;;;12.33;100.00
59791;BME280;47431;51.640;5.554;2023-11-19T01:54:00;101744.88;;;12.38;100.00
59791;BME280;47431;51.640;5.554;2023-11-19T01:56:27;101753.38;;;12.30;100.00
59791;BME280;47431;51.640;5.554;2023-11-19T01:58:54;101744.72;;;12.25;100.00
59791;BME280;47431;51.640;5.554;2023-11-19T02:01:20;101755.81;;;12.19;100.00
59791;BME280;47431;51.640;5.554;2023-11-19T02:03:46;101767.28;;;12.23;100.00
59791;BME280;47431;51.640;5.554;2023-11-19T02:06:12;101776.31;;;12.22;100.00
59791;BME280;47431;51.640;5.554;2023-11-19T02:08:37;101754.59;;;12.09;100.00
59791;BME280;47431;51.640;5.554;2023-11-19T02:11:04;101761.00;;;12.06;100.00
59791;BME280;47431;51.640;5.554;2023-11-19T02:13:31;101762.91;;;12.04;100.00
59791;BME280;47431;51.640;5.554;2023-11-19T02:15:57;101768.81;;;11.95;100.00
59791;BME280;47431;51.640;5.554;2023-11-19T02:18:27;101781.22;;;11.97;100.00
59791;BME280;47431;51.640;5.554;2023-11-19T02:20:54;101801.53;;;12.03;100.00
59791;BME280;47431;51.640;5.554;2023-11-19T02:23:20;101789.03;;;12.02;100.00
59791;BME280;47431;51.640;5.554;2023-11-19T02:26:18;101819.31;;;12.05;100.00
59791;BME280;47431;51.640;5.554;2023-11-19T02:28:46;101803.66;;;12.14;100.00
59791;BME280;47431;51.640;5.554;2023-11-19T02:31:12;101809.13;;;12.12;100.00
59791;BME280;47431;51.640;5.554;2023-11-19T02:33:38;101813.63;;;12.12;100.00
59791;BME280;47431;51.640;5.554;2023-11-19T02:36:04;101817.19;;;12.12;100.00
59791;BME280;47431;51.640;5.554;2023-11-19T02:38:30;101808.00;;;12.16;100.00
59791;BME280;47431;51.640;5.554;2023-11-19T02:40:56;101803.59;;;12.15;100.00
59791;BME280;47431;51.640;5.554;2023-11-19T02:43:22;101825.78;;;12.19;100.00
59791;BME280;47431;51.640;5.554;2023-11-19T02:45:48;101821.28;;;12.20;100.00
59791;BME280;47431;51.640;5.554;2023-11-19T02:48:13;101817.53;;;12.22;100.00
59791;BME280;47431;51.640;5.554;2023-11-19T02:50:41;101841.69;;;12.24;100.00
59791;BME280;47431;51.640;5.554;2023-11-19T02:53:07;101840.13;;;12.20;100.00
59791;BME280;47431;51.640;5.554;2023-11-19T02:55:32;101834.91;;;12.16;100.00
59791;BME280;47431;51.640;5.554;2023-11-19T02:58:02;101827.25;;;12.09;100.00
59791;BME280;47431;51.640;5.554;2023-11-19T03:00:33;101839.34;;;12.00;100.00
59791;BME280;47431;51.640;5.554;2023-11-19T03:03:02;101845.16;;;11.92;100.00
59791;BME280;47431;51.640;5.554;2023-11-19T03:05:48;101850.00;;;11.85;100.00
59791;BME280;47431;51.640;5.554;2023-11-19T03:08:16;101868.03;;;11.83;100.00
59791;BME280;47431;51.640;5.554;2023-11-19T03:10:42;101850.66;;;11.73;100.00
59791;BME280;47431;51.640;5.554;2023-11-19T03:13:12;101857.56;;;11.61;100.00
59791;BME280;47431;51.640;5.554;2023-11-19T03:15:39;101858.59;;;11.58;100.00
59791;BME280;47431;51.640;5.554;2023-11-19T03:18:05;101853.94;;;11.44;100.00
59791;BME280;47431;51.640;5.554;2023-11-19T03:20:30;101859.16;;;11.29;100.00
59791;BME280;47431;51.640;5.554;2023-11-19T03:22:56;101863.34;;;11.35;100.00
59791;BME280;47431;51.640;5.554;2023-11-19T03:25:25;101871.56;;;11.32;100.00
59791;BME280;47431;51.640;5.554;2023-11-19T03:27:50;101887.03;;;11.27;100.00
59791;BME280;47431;51.640;5.554;2023-11-19T03:30:16;101877.25;;;11.26;100.00
59791;BME280;47431;51.640;5.554;2023-11-19T03:32:42;101882.22;;;11.16;100.00
59791;BME280;47431;51.640;5.554;2023-11-19T03:35:08;101889.41;;;11.15;100.00
59791;BME280;47431;51.640;5.554;2023-11-19T03:37:34;101889.34;;;11.17;100.00
59791;BME280;47431;51.640;5.554;2023-11-19T03:40:00;101883.16;;;11.15;100.00
59791;BME280;47431;51.640;5.554;2023-11-19T03:42:28;101891.06;;;11.18;100.00
59791;BME280;47431;51.640;5.554;2023-11-19T03:44:56;101879.91;;;11.08;100.00
59791;BME280;47431;51.640;5.554;2023-11-19T03:47:21;101888.06;;;11.07;100.00
59791;BME280;47431;51.640;5.554;2023-11-19T03:49:48;101915.41;;;11.15;100.00
59791;BME280;47431;51.640;5.554;2023-11-19T03:52:14;101901.41;;;11.08;100.00
59791;BME280;47431;51.640;5.554;2023-11-19T03:54:39;101906.34;;;11.18;100.00
59791;BME280;47431;51.640;5.554;2023-11-19T03:57:04;101889.41;;;11.15;100.00
59791;BME280;47431;51.640;5.554;2023-11-19T03:59:30;101896.78;;;11.12;100.00
59791;BME280;47431;51.640;5.554;2023-11-19T04:01:56;101890.53;;;11.11;100.00
59791;BME280;47431;51.640;5.554;2023-11-19T04:04:22;101899.47;;;11.12;100.00
59791;BME280;47431;51.640;5.554;2023-11-19T04:06:47;101891.84;;;11.02;100.00
59791;BME280;47431;51.640;5.554;2023-11-19T04:09:13;101886.41;;;11.04;100.00
59791;BME280;47431;51.640;5.554;2023-11-19T04:11:38;101894.13;;;10.93;100.00
59791;BME280;47431;51.640;5.554;2023-11-19T04:14:05;101907.31;;;10.97;100.00
59791;BME280;47431;51.640;5.554;2023-11-19T04:16:30;101915.69;;;10.91;100.00
59791;BME280;47431;51.640;5.554;2023-11-19T04:18:56;101911.69;;;11.00;100.00
59791;BME280;47431;51.640;5.554;2023-11-19T04:21:21;101897.66;;;10.93;100.00
59791;BME280;47431;51.640;5.554;2023-11-19T04:23:48;101919.06;;;10.95;100.00
59791;BME280;47431;51.640;5.554;2023-11-19T04:26:13;101927.06;;;10.96;100.00
59791;BME280;47431;51.640;5.554;2023-11-19T04:28:39;101921.63;;;10.98;100.00
59791;BME280;47431;51.640;5.554;2023-11-19T04:31:04;101939.38;;;11.00;100.00
59791;BME280;47431;51.640;5.554;2023-11-19T04:33:31;101943.38;;;10.91;100.00
59791;BME280;47431;51.640;5.554;2023-11-19T04:35:56;101949.66;;;10.92;100.00
59791;BME280;47431;51.640;5.554;2023-11-19T04:38:21;101950.06;;;11.02;100.00
59791;BME280;47431;51.640;5.554;2023-11-19T04:40:47;101955.06;;;11.10;100.00
59791;BME280;47431;51.640;5.554;2023-11-19T04:43:12;101956.69;;;10.95;100.00
59791;BME280;47431;51.640;5.554;2023-11-19T04:45:38;101961.09;;;10.96;100.00
59791;BME280;47431;51.640;5.554;2023-11-19T04:48:05;101969.75;;;11.02;100.00
59791;BME280;47431;51.640;5.554;2023-11-19T04:50:30;101972.50;;;11.01;100.00
59791;BME280;47431;51.640;5.554;2023-11-19T04:52:56;101990.16;;;10.87;100.00
59791;BME280;47431;51.640;5.554;2023-11-19T04:55:21;101986.91;;;10.81;100.00
59791;BME280;47431;51.640;5.554;2023-11-19T04:57:47;101993.72;;;10.88;100.00
59791;BME280;47431;51.640;5.554;2023-11-19T05:00:13;101997.84;;;10.95;100.00
59791;BME280;47431;51.640;5.554;2023-11-19T05:02:38;101983.19;;;10.83;100.00
59791;BME280;47431;51.640;5.554;2023-11-19T05:05:04;101988.34;;;10.88;100.00
59791;BME280;47431;51.640;5.554;2023-11-19T05:07:30;101981.22;;;10.87;100.00
59791;BME280;47431;51.640;5.554;2023-11-19T05:09:56;101980.28;;;10.88;100.00
59791;BME280;47431;51.640;5.554;2023-11-19T05:12:21;102001.63;;;10.91;100.00
59791;BME280;47431;51.640;5.554;2023-11-19T05:14:48;101982.50;;;10.97;100.00
59791;BME280;47431;51.640;5.554;2023-11-19T05:17:19;101992.75;;;10.89;100.00
59791;BME280;47431;51.640;5.554;2023-11-19T05:19:44;101994.72;;;10.85;100.00
59791;BME280;47431;51.640;5.554;2023-11-19T05:22:10;101992.75;;;10.89;100.00
59791;BME280;47431;51.640;5.554;2023-11-19T05:24:35;101984.63;;;10.90;100.00
59791;BME280;47431;51.640;5.554;2023-11-19T05:27:01;101991.81;;;10.90;100.00
59791;BME280;47431;51.640;5.554;2023-11-19T05:29:27;101993.94;;;10.83;100.00
59791;BME280;47431;51.640;5.554;2023-11-19T05:31:52;101997.03;;;10.93;100.00
59791;BME280;47431;51.640;5.554;2023-11-19T05:34:19;102000.88;;;10.87;100.00
59791;BME280;47431;51.640;5.554;2023-11-19T05:36:45;102015.91;;;10.91;100.00
59791;BME280;47431;51.640;5.554;2023-11-19T05:39:10;102013.22;;;10.91;100.00
59791;BME280;47431;51.640;5.554;2023-11-19T05:41:36;102015.81;;;10.74;100.00
59791;BME280;47431;51.640;5.554;2023-11-19T05:44:02;102025.66;;;10.75;100.00
59791;BME280;47431;51.640;5.554;2023-11-19T05:46:27;102023.47;;;10.83;100.00
59791;BME280;47431;51.640;5.554;2023-11-19T05:48:53;102021.81;;;10.81;100.00
59791;BME280;47431;51.640;5.554;2023-11-19T05:51:18;102027.78;;;10.67;100.00
59791;BME280;47431;51.640;5.554;2023-11-19T05:53:44;102024.34;;;10.64;100.00
59791;BME280;47431;51.640;5.554;2023-11-19T05:56:11;102040.59;;;10.81;100.00
59791;BME280;47431;51.640;5.554;2023-11-19T05:58:36;102036.97;;;10.82;100.00
59791;BME280;47431;51.640;5.554;2023-11-19T06:01:02;102039.06;;;10.75;100.00
59791;BME280;47431;51.640;5.554;2023-11-19T06:03:28;102059.16;;;10.66;100.00
59791;BME280;47431;51.640;5.554;2023-11-19T06:05:53;102035.06;;;10.64;100.00
59791;BME280;47431;51.640;5.554;2023-11-19T06:08:22;102032.03;;;10.51;100.00
59791;BME280;47431;51.640;5.554;2023-11-19T06:10:47;102030.81;;;10.59;100.00
59791;BME280;47431;51.640;5.554;2023-11-19T06:13:15;102032.53;;;10.61;100.00
59791;BME280;47431;51.640;5.554;2023-11-19T06:15:42;102031.06;;;10.54;100.00
59791;BME280;47431;51.640;5.554;2023-11-19T06:18:07;102032.66;;;10.58;100.00
59791;BME280;47431;51.640;5.554;2023-11-19T06:20:33;102021.78;;;10.61;100.00
59791;BME280;47431;51.640;5.554;2023-11-19T06:22:59;102019.16;;;10.60;100.00
59791;BME280;47431;51.640;5.554;2023-11-19T06:25:25;102017.41;;;10.59;100.00
59791;BME280;47431;51.640;5.554;2023-11-19T06:27:51;102015.28;;;10.46;100.00
59791;BME280;47431;51.640;5.554;2023-11-19T06:30:17;102020.75;;;10.43;100.00
59791;BME280;47431;51.640;5.554;2023-11-19T06:32:42;102021.31;;;10.51;100.00
59791;BME280;47431;51.640;5.554;2023-11-19T06:35:08;102019.09;;;10.40;100.00
59791;BME280;47431;51.640;5.554;2023-11-19T06:37:35;102019.88;;;10.43;100.00
59791;BME280;47431;51.640;5.554;2023-11-19T06:40:00;102029.84;;;10.40;100.00
59791;BME280;47431;51.640;5.554;2023-11-19T06:42:26;102028.06;;;10.39;100.00
59791;BME280;47431;51.640;5.554;2023-11-19T06:44:51;102015.81;;;10.34;100.00
59791;BME280;47431;51.640;5.554;2023-11-19T06:47:17;102021.16;;;10.34;100.00
59791;BME280;47431;51.640;5.554;2023-11-19T06:49:45;102020.50;;;10.28;100.00
59791;BME280;47431;51.640;5.554;2023-11-19T06:52:11;102029.56;;;10.26;100.00
59791;BME280;47431;51.640;5.554;2023-11-19T06:54:38;102028.56;;;10.28;100.00
59791;BME280;47431;51.640;5.554;2023-11-19T06:57:04;102038.41;;;10.28;100.00
59791;BME280;47431;51.640;5.554;2023-11-19T06:59:30;102037.06;;;10.18;100.00
59791;BME280;47431;51.640;5.554;2023-11-19T07:01:56;102045.81;;;10.23;100.00
59791;BME280;47431;51.640;5.554;2023-11-19T07:04:21;102066.59;;;10.18;100.00
59791;BME280;47431;51.640;5.554;2023-11-19T07:06:47;102054.78;;;10.22;100.00
59791;BME280;47431;51.640;5.554;2023-11-19T07:09:13;102056.03;;;10.13;100.00
59791;BME280;47431;51.640;5.554;2023-11-19T07:11:40;102054.31;;;10.12;100.00
59791;BME280;47431;51.640;5.554;2023-11-19T07:14:06;102071.88;;;10.19;100.00
59791;BME280;47431;51.640;5.554;2023-11-19T07:16:32;102086.56;;;10.10;100.00
59791;BME280;47431;51.640;5.554;2023-11-19T07:19:02;102076.38;;;10.19;100.00
59791;BME280;47431;51.640;5.554;2023-11-19T07:21:28;102086.13;;;10.21;100.00
59791;BME280;47431;51.640;5.554;2023-11-19T07:23:54;102072.63;;;10.23;100.00
59791;BME280;47431;51.640;5.554;2023-11-19T07:26:20;102075.66;;;10.15;100.00
59791;BME280;47431;51.640;5.554;2023-11-19T07:28:45;102080.88;;;10.18;100.00
59791;BME280;47431;51.640;5.554;2023-11-19T07:31:11;102075.50;;;10.18;100.00
59791;BME280;47431;51.640;5.554;2023-11-19T07:33:36;102081.25;;;10.09;100.00
59791;BME280;47431;51.640;5.554;2023-11-19T07:36:02;102084.41;;;10.19;100.00
59791;BME280;47431;51.640;5.554;2023-11-19T07:38:27;102089.00;;;10.17;100.00
59791;BME280;47431;51.640;5.554;2023-11-19T07:40:52;102094.16;;;10.21;100.00
59791;BME280;47431;51.640;5.554;2023-11-19T07:43:18;102097.50;;;10.26;100.00
59791;BME280;47431;51.640;5.554;2023-11-19T07:45:43;102103.94;;;10.22;100.00
59791;BME280;47431;51.640;5.554;2023-11-19T07:48:10;102101.84;;;10.29;100.00
59791;BME280;47431;51.640;5.554;2023-11-19T07:50:38;102103.13;;;10.41;100.00
59791;BME280;47431;51.640;5.554;2023-11-19T07:53:03;102093.56;;;10.35;100.00
59791;BME280;47431;51.640;5.554;2023-11-19T07:55:29;102099.88;;;10.34;100.00
59791;BME280;47431;51.640;5.554;2023-11-19T07:57:55;102090.94;;;10.34;100.00
59791;BME280;47431;51.640;5.554;2023-11-19T08:00:21;102091.44;;;10.44;100.00
59791;BME280;47431;51.640;5.554;2023-11-19T08:02:46;102088.06;;;10.38;100.00
59791;BME280;47431;51.640;5.554;2023-11-19T08:05:11;102097.41;;;10.50;100.00
59791;BME280;47431;51.640;5.554;2023-11-19T08:07:37;102109.81;;;10.53;100.00
59791;BME280;47431;51.640;5.554;2023-11-19T08:10:03;102101.78;;;10.53;100.00
59791;BME280;47431;51.640;5.554;2023-11-19T08:12:30;102108.91;;;10.54;100.00
59791;BME280;47431;51.640;5.554;2023-11-19T08:14:56;102091.50;;;10.63;100.00
59791;BME280;47431;51.640;5.554;2023-11-19T08:17:23;102105.19;;;10.77;100.00
59791;BME280;47431;51.640;5.554;2023-11-19T08:19:49;102126.16;;;10.88;100.00
59791;BME280;47431;51.640;5.554;2023-11-19T08:22:14;102107.91;;;10.97;100.00
59791;BME280;47431;51.640;5.554;2023-11-19T08:24:40;102116.03;;;10.95;100.00
59791;BME280;47431;51.640;5.554;2023-11-19T08:27:05;102098.97;;;10.96;100.00
59791;BME280;47431;51.640;5.554;2023-11-19T08:29:31;102113.47;;;10.92;100.00
59791;BME280;47431;51.640;5.554;2023-11-19T08:31:56;102103.38;;;10.97;100.00
59791;BME280;47431;51.640;5.554;2023-11-19T08:34:21;102119.69;;;11.13;100.00
59791;BME280;47431;51.640;5.554;2023-11-19T08:36:50;102109.22;;;11.26;100.00
59791;BME280;47431;51.640;5.554;2023-11-19T08:39:16;102102.69;;;11.32;100.00
59791;BME280;47431;51.640;5.554;2023-11-19T08:41:42;102100.88;;;11.33;100.00
59791;BME280;47431;51.640;5.554;2023-11-19T08:44:07;102111.78;;;11.29;100.00
59791;BME280;47431;51.640;5.554;2023-11-19T08:46:32;102121.66;;;11.29;100.00
59791;BME280;47431;51.640;5.554;2023-11-19T08:48:58;102119.97;;;11.46;100.00
59791;BME280;47431;51.640;5.554;2023-11-19T08:51:24;102119.31;;;11.40;100.00
59791;BME280;47431;51.640;5.554;2023-11-19T08:53:50;102126.66;;;11.37;100.00
59791;BME280;47431;51.640;5.554;2023-11-19T08:56:15;102121.50;;;11.32;100.00
59791;BME280;47431;51.640;5.554;2023-11-19T08:58:41;102141.47;;;11.26;100.00
59791;BME280;47431;51.640;5.554;2023-11-19T09:01:06;102131.66;;;11.25;100.00
59791;BME280;47431;51.640;5.554;2023-11-19T09:03:31;102133.91;;;11.35;100.00
59791;BME280;47431;51.640;5.554;2023-11-19T09:05:57;102129.78;;;11.47;100.00
59791;BME280;47431;51.640;5.554;2023-11-19T09:08:22;102129.22;;;11.40;100.00
59791;BME280;47431;51.640;5.554;2023-11-19T09:10:48;102125.72;;;11.38;100.00
59791;BME280;47431;51.640;5.554;2023-11-19T09:13:13;102118.00;;;11.30;100.00
59791;BME280;47431;51.640;5.554;2023-11-19T09:15:39;102117.09;;;11.31;100.00
59791;BME280;47431;51.640;5.554;2023-11-19T09:18:04;102113.50;;;11.31;100.00
59791;BME280;47431;51.640;5.554;2023-11-19T09:20:29;102110.09;;;11.27;100.00
59791;BME280;47431;51.640;5.554;2023-11-19T09:23:03;102114.97;;;11.38;100.00
59791;BME280;47431;51.640;5.554;2023-11-19T09:25:28;102111.03;;;11.45;100.00
59791;BME280;47431;51.640;5.554;2023-11-19T09:27:53;102122.53;;;11.49;100.00
59791;BME280;47431;51.640;5.554;2023-11-19T09:30:19;102117.06;;;11.50;100.00
59791;BME280;47431;51.640;5.554;2023-11-19T09:32:45;102117.97;;;11.69;100.00
59791;BME280;47431;51.640;5.554;2023-11-19T09:35:10;102109.53;;;11.76;100.00
59791;BME280;47431;51.640;5.554;2023-11-19T09:37:38;102112.72;;;11.85;100.00
59791;BME280;47431;51.640;5.554;2023-11-19T09:40:05;102113.47;;;12.06;100.00
59791;BME280;47431;51.640;5.554;2023-11-19T09:42:43;102116.50;;;12.35;100.00
59791;BME280;47431;51.640;5.554;2023-11-19T09:45:14;102128.16;;;12.53;100.00
59791;BME280;47431;51.640;5.554;2023-11-19T09:47:44;102133.91;;;12.81;100.00
59791;BME280;47431;51.640;5.554;2023-11-19T09:50:17;102149.03;;;12.13;100.00
59791;BME280;47431;51.640;5.554;2023-11-19T09:52:47;102137.59;;;12.27;100.00
59791;BME280;47431;51.640;5.554;2023-11-19T09:55:13;102134.72;;;12.65;100.00
59791;BME280;47431;51.640;5.554;2023-11-19T09:57:39;102138.28;;;12.84;100.00
59791;BME280;47431;51.640;5.554;2023-11-19T10:00:06;102156.44;;;12.62;100.00
59791;BME280;47431;51.640;5.554;2023-11-19T10:02:33;102155.84;;;12.38;100.00
59791;BME280;47431;51.640;5.554;2023-11-19T10:05:04;102136.78;;;12.60;100.00
59791;BME280;47431;51.640;5.554;2023-11-19T10:07:31;102147.22;;;12.84;100.00
59791;BME280;47431;51.640;5.554;2023-11-19T10:09:59;102137.31;;;12.85;100.00
59791;BME280;47431;51.640;5.554;2023-11-19T10:12:26;102152.75;;;12.81;100.00
59791;BME280;47431;51.640;5.554;2023-11-19T10:14:53;102158.59;;;12.55;100.00
59791;BME280;47431;51.640;5.554;2023-11-19T10:17:20;102147.72;;;12.39;100.00
59791;BME280;47431;51.640;5.554;2023-11-19T10:19:45;102152.16;;;12.40;100.00
59791;BME280;47431;51.640;5.554;2023-11-19T10:22:11;102134.97;;;12.25;100.00
59791;BME280;47431;51.640;5.554;2023-11-19T10:24:36;102136.63;;;12.10;100.00
59791;BME280;47431;51.640;5.554;2023-11-19T10:27:07;102143.66;;;12.13;100.00
59791;BME280;47431;51.640;5.554;2023-11-19T10:29:36;102150.59;;;12.54;100.00
59791;BME280;47431;51.640;5.554;2023-11-19T10:32:01;102143.66;;;12.48;100.00
59791;BME280;47431;51.640;5.554;2023-11-19T10:34:27;102124.81;;;12.48;100.00
59791;BME280;47431;51.640;5.554;2023-11-19T10:36:53;102135.19;;;12.38;100.00
59791;BME280;47431;51.640;5.554;2023-11-19T10:39:19;102123.66;;;12.36;100.00
59791;BME280;47431;51.640;5.554;2023-11-19T10:41:46;102155.63;;;12.42;100.00
59791;BME280;47431;51.640;5.554;2023-11-19T10:44:11;102125.97;;;12.78;100.00
59791;BME280;47431;51.640;5.554;2023-11-19T10:46:41;102114.94;;;13.16;100.00
59791;BME280;47431;51.640;5.554;2023-11-19T10:49:09;102127.28;;;13.71;100.00
59791;BME280;47431;51.640;5.554;2023-11-19T10:51:34;102148.31;;;13.64;100.00
59791;BME280;47431;51.640;5.554;2023-11-19T10:54:04;102170.16;;;13.25;100.00
59791;BME280;47431;51.640;5.554;2023-11-19T10:56:33;102164.16;;;13.20;100.00
59791;BME280;47431;51.640;5.554;2023-11-19T10:59:00;102167.97;;;13.00;100.00
59791;BME280;47431;51.640;5.554;2023-11-19T11:01:37;102133.38;;;12.74;100.00
59791;BME280;47431;51.640;5.554;2023-11-19T11:04:13;102130.03;;;12.69;100.00
59791;BME280;47431;51.640;5.554;2023-11-19T11:06:39;102155.25;;;12.50;100.00
59791;BME280;47431;51.640;5.554;2023-11-19T11:09:05;102123.16;;;12.46;100.00
59791;BME280;47431;51.640;5.554;2023-11-19T11:11:32;102106.69;;;12.52;100.00
59791;BME280;47431;51.640;5.554;2023-11-19T11:13:58;102110.19;;;12.54;100.00
59791;BME280;47431;51.640;5.554;2023-11-19T11:16:25;102107.50;;;12.54;100.00
59791;BME280;47431;51.640;5.554;2023-11-19T11:18:51;102108.22;;;12.40;100.00
59791;BME280;47431;51.640;5.554;2023-11-19T11:21:21;102113.22;;;12.30;100.00
59791;BME280;47431;51.640;5.554;2023-11-19T11:24:14;102105.38;;;12.25;100.00
59791;BME280;47431;51.640;5.554;2023-11-19T11:30:13;102086.91;;;12.17;100.00
59791;BME280;47431;51.640;5.554;2023-11-19T11:32:54;102109.84;;;12.07;100.00
59791;BME280;47431;51.640;5.554;2023-11-19T11:38:09;102076.75;;;12.05;100.00
59791;BME280;47431;51.640;5.554;2023-11-19T11:40:35;102077.69;;;12.04;100.00
59791;BME280;47431;51.640;5.554;2023-11-19T11:43:01;102088.59;;;12.01;100.00
59791;BME280;47431;51.640;5.554;2023-11-19T11:45:38;102098.00;;;11.92;100.00
59791;BME280;47431;51.640;5.554;2023-11-19T11:48:09;102089.00;;;11.93;100.00
59791;BME280;47431;51.640;5.554;2023-11-19T11:50:50;102105.56;;;12.03;100.00
59791;BME280;47431;51.640;5.554;2023-11-19T11:53:17;102088.34;;;12.07;100.00
59791;BME280;47431;51.640;5.554;2023-11-19T11:58:17;102086.28;;;12.30;100.00
59791;BME280;47431;51.640;5.554;2023-11-19T12:00:42;102088.91;;;12.14;100.00
59791;BME280;47431;51.640;5.554;2023-11-19T12:03:08;102087.53;;;12.05;100.00
59791;BME280;47431;51.640;5.554;2023-11-19T12:05:47;102085.78;;;12.39;100.00
59791;BME280;47431;51.640;5.554;2023-11-19T12:08:14;102075.09;;;12.55;100.00
59791;BME280;47431;51.640;5.554;2023-11-19T12:13:19;102087.13;;;12.13;100.00
59791;BME280;47431;51.640;5.554;2023-11-19T12:16:07;102079.75;;;11.99;100.00
59791;BME280;47431;51.640;5.554;2023-11-19T12:18:32;102063.63;;;11.99;100.00
59791;BME280;47431;51.640;5.554;2023-11-19T12:20:59;102063.19;;;12.08;100.00
59791;BME280;47431;51.640;5.554;2023-11-19T12:23:26;102069.34;;;12.28;100.00
59791;BME280;47431;51.640;5.554;2023-11-19T12:25:52;102077.50;;;12.26;100.00
59791;BME280;47431;51.640;5.554;2023-11-19T12:28:17;102071.19;;;12.27;100.00
59791;BME280;47431;51.640;5.554;2023-11-19T12:30:44;102075.38;;;12.33;100.00
59791;BME280;47431;51.640;5.554;2023-11-19T12:33:10;102083.31;;;12.70;100.00
59791;BME280;47431;51.640;5.554;2023-11-19T12:35:40;102070.09;;;13.15;100.00
59791;BME280;47431;51.640;5.554;2023-11-19T12:38:05;102083.38;;;13.35;100.00
59791;BME280;47431;51.640;5.554;2023-11-19T12:40:31;102096.63;;;13.23;100.00
59791;BME280;47431;51.640;5.554;2023-11-19T12:42:57;102091.56;;;13.33;100.00
59791;BME280;47431;51.640;5.554;2023-11-19T12:45:22;102098.88;;;13.31;100.00
59791;BME280;47431;51.640;5.554;2023-11-19T12:47:49;102119.44;;;13.00;100.00
59791;BME280;47431;51.640;5.554;2023-11-19T12:50:16;102119.00;;;12.74;100.00